KSJT

San Angelo Regional / Mathis Field Airport

San Angelo, Texas, USA
KSJT 210520Z 2106/2206 17009KT P6SM SKC FM211500 20009KT P6SM SKC
Issued Valid From Valid To
Jul-21 @ 05:20 UTC
(4 hours ago)
Jul-21 @ 06:00 UTC
(4 hours ago)
Jul-22 @ 06:00 UTC
(in 20 hours)
Jul-21 @ 06:00 to Jul-21 @ 15:00
KSJT 210520Z 2106/2206 17009KT P6SM SKC
Wind Visibility Clouds
170° at 9 knots Greater than 6 miles
  • Clear skies
From Jul-21 @ 15:00 to Jul-22 @ 06:00
FM211500 20009KT P6SM SKC
Wind Visibility Clouds
200° at 9 knots Greater than 6 miles
  • Clear skies
KSJT 210520Z 2106/2206 17009KT P6SM SKC FM211500 20009KT P6SM SKC
Issued Jul-21 @ 05:20 UTC
(4 hours ago)
Valid From Jul-21 @ 06:00 UTC
(4 hours ago)
Valid To Jul-22 @ 06:00 UTC
(in 20 hours)
Jul-21 @ 06:00 - Jul-21 @ 15:00
Wind Visibility
170° at 9 knots Greater than 6 miles
Clouds
  • Clear skies
From Jul-21 @ 15:00 - Jul-22 @ 06:00
Wind Visibility
200° at 9 knots Greater than 6 miles
Clouds
  • Clear skies